createdAt,value
2018-02-06T00:00:31.661Z,98.42
2018-02-06T00:01:31.649Z,98.71
2018-02-06T00:02:31.637Z,98.61
2018-02-06T00:03:31.625Z,98.99
2018-02-06T00:04:31.614Z,99.37
2018-02-06T00:05:31.602Z,99.65
2018-02-06T00:06:31.589Z,98.71
2018-02-06T00:07:31.577Z,98.71
2018-02-06T00:08:31.567Z,98.99
2018-02-06T00:09:31.551Z,98.71
2018-02-06T00:10:31.543Z,99.08
2018-02-06T00:11:31.529Z,99.27
2018-02-06T00:12:31.518Z,98.99
2018-02-06T00:13:31.503Z,98.71
2018-02-06T00:14:31.507Z,99.08
2018-02-06T00:15:31.479Z,98.99
2018-02-06T00:16:31.485Z,99.18
2018-02-06T00:17:31.453Z,99.08
2018-02-06T00:18:31.447Z,98.71
2018-02-06T00:19:31.430Z,98.80
2018-02-06T00:20:31.454Z,99.08
2018-02-06T00:21:31.409Z,99.08
2018-02-06T00:22:31.397Z,99.08
2018-02-06T00:23:31.382Z,98.99
2018-02-06T00:24:31.370Z,98.52
2018-02-06T00:25:31.358Z,98.99
2018-02-06T00:26:31.347Z,99.55
2018-02-06T00:27:31.335Z,98.71
2018-02-06T00:28:31.324Z,99.74
2018-02-06T00:29:31.314Z,99.74
2018-02-06T00:30:31.297Z,99.08
2018-02-06T00:31:31.285Z,98.99
2018-02-06T00:32:31.273Z,98.90
2018-02-06T00:33:31.278Z,99.08
2018-02-06T00:34:31.248Z,98.99
2018-02-06T00:35:31.241Z,99.46
2018-02-06T00:36:31.224Z,98.75
2018-02-06T00:37:31.214Z,99.37
2018-02-06T00:38:31.197Z,99.18
2018-02-06T00:39:31.187Z,99.93
2018-02-06T00:40:31.175Z,99.65
2018-02-06T00:41:31.164Z,99.74
2018-02-06T00:42:31.149Z,99.99
2018-02-06T00:43:31.137Z,99.27
2018-02-06T00:44:31.124Z,99.74
2018-02-06T00:45:31.135Z,99.74
2018-02-06T00:46:31.098Z,99.69
2018-02-06T00:47:31.089Z,99.46
2018-02-06T00:48:31.074Z,99.37
2018-02-06T00:49:31.061Z,99.37
2018-02-06T00:50:31.050Z,99.46
2018-02-06T00:51:31.038Z,99.65
2018-02-06T00:52:31.030Z,99.46
2018-02-06T00:53:31.015Z,99.46
2018-02-06T00:54:31.025Z,99.93
2018-02-06T00:55:31.001Z,99.84
2018-02-06T00:56:30.977Z,99.99
2018-02-06T00:57:30.975Z,99.99
2018-02-06T00:58:30.952Z,99.99
2018-02-06T00:59:30.941Z,99.74
2018-02-06T01:00:30.928Z,99.84
2018-02-06T01:01:30.920Z,99.99
2018-02-06T01:02:30.903Z,99.99
2018-02-06T01:03:30.908Z,99.99
2018-02-06T01:04:30.879Z,99.99
2018-02-06T01:05:30.895Z,99.55
2018-02-06T01:06:30.901Z,99.99
2018-02-06T01:07:30.846Z,99.74
2018-02-06T01:08:30.839Z,99.51
2018-02-06T01:09:30.833Z,99.74
2018-02-06T01:10:30.830Z,99.51
2018-02-06T01:11:30.793Z,99.79
2018-02-06T01:12:30.783Z,99.51
2018-02-06T01:13:30.803Z,99.88
2018-02-06T01:14:30.778Z,99.69
2018-02-06T01:15:30.758Z,99.79
2018-02-06T01:16:30.743Z,99.22
2018-02-06T01:17:30.736Z,99.32
2018-02-06T01:18:30.717Z,99.69
2018-02-06T01:19:30.708Z,99.99
2018-02-06T01:20:30.686Z,99.99
2018-02-06T01:21:30.706Z,99.99
2018-02-06T01:22:30.687Z,99.99
2018-02-06T01:23:30.645Z,99.99
2018-02-06T01:24:30.637Z,99.99
2018-02-06T01:25:30.623Z,99.99
2018-02-06T01:26:30.613Z,99.65
2018-02-06T01:27:30.601Z,99.74
2018-02-06T01:28:30.587Z,98.71
2018-02-06T01:29:30.575Z,98.90
2018-02-06T01:30:30.560Z,99.65
2018-02-06T01:31:30.552Z,99.74
2018-02-06T01:32:30.545Z,99.99
2018-02-06T01:33:30.523Z,99.65
2018-02-06T01:34:30.529Z,99.27
2018-02-06T01:35:30.499Z,98.99
2018-02-06T01:36:30.489Z,98.90
2018-02-06T01:37:30.485Z,98.80
2018-02-06T01:38:30.466Z,99.55
2018-02-06T01:39:30.452Z,98.90
2018-02-06T01:40:30.443Z,98.99
2018-02-06T01:41:30.427Z,98.75
2018-02-06T01:42:30.424Z,98.65
2018-02-06T01:43:30.407Z,98.65
2018-02-06T01:44:30.394Z,99.13
2018-02-06T01:45:30.382Z,98.56
2018-02-06T01:46:30.383Z,99.22
2018-02-06T01:47:30.370Z,99.69
2018-02-06T01:48:30.344Z,99.51
2018-02-06T01:49:30.332Z,99.60
2018-02-06T01:50:30.321Z,99.84
2018-02-06T01:51:30.309Z,99.99
2018-02-06T01:52:30.300Z,99.99
2018-02-06T01:53:30.284Z,99.99
2018-02-06T01:54:30.273Z,99.99
2018-02-06T01:55:30.259Z,99.74
2018-02-06T01:56:30.247Z,99.51
2018-02-06T01:57:30.239Z,99.65
2018-02-06T01:58:30.232Z,99.55
2018-02-06T01:59:30.207Z,99.55
2018-02-06T02:00:30.203Z,99.74
2018-02-06T02:01:30.195Z,99.55
2018-02-06T02:02:30.178Z,99.22
2018-02-06T02:03:30.162Z,99.32
2018-02-06T02:04:30.152Z,98.94
2018-02-06T02:05:30.138Z,98.65
2018-02-06T02:06:30.124Z,98.47
2018-02-06T02:07:30.120Z,98.75
2018-02-06T02:08:30.101Z,98.75
2018-02-06T02:09:30.087Z,98.47
2018-02-06T02:10:30.080Z,98.37
2018-02-06T02:11:30.067Z,98.65
2018-02-06T02:12:30.061Z,98.94
2018-02-06T02:13:30.057Z,99.03
2018-02-06T02:14:30.028Z,99.03
2018-02-06T02:15:30.015Z,98.65
2018-02-06T02:16:30.006Z,98.47
2018-02-06T02:17:29.991Z,98.75
2018-02-06T02:18:29.982Z,98.94
2018-02-06T02:19:29.965Z,99.03
2018-02-06T02:20:29.957Z,98.47
2018-02-06T02:21:29.942Z,98.65
2018-02-06T02:22:29.928Z,98.94
2018-02-06T02:23:29.918Z,99.22
2018-02-06T02:24:29.904Z,98.84
2018-02-06T02:25:29.892Z,99.60
2018-02-06T02:26:29.879Z,99.51
2018-02-06T02:27:29.867Z,99.51
2018-02-06T02:28:29.903Z,99.60
2018-02-06T02:29:29.846Z,99.51
2018-02-06T02:30:29.841Z,99.41
2018-02-06T02:31:29.817Z,98.94
2018-02-06T02:32:29.805Z,99.60
2018-02-06T02:33:29.790Z,99.51
2018-02-06T02:34:29.778Z,99.69
2018-02-06T02:35:29.782Z,99.99
2018-02-06T02:36:29.753Z,99.99
2018-02-06T02:37:29.740Z,99.99
2018-02-06T02:38:29.727Z,99.69
2018-02-06T02:39:29.717Z,99.51
2018-02-06T02:40:29.707Z,99.69
2018-02-06T02:41:29.697Z,98.75
2018-02-06T04:38:28.146Z,99.99
2018-02-06T04:39:28.138Z,99.99
2018-02-06T04:40:28.120Z,99.99
2018-02-06T04:41:28.110Z,99.99
2018-02-06T04:42:28.095Z,99.99
2018-02-06T04:43:28.079Z,99.99
2018-02-06T04:44:28.066Z,99.99
2018-02-06T04:45:28.053Z,99.99
2018-02-06T04:46:28.040Z,99.99
2018-02-06T04:47:28.028Z,99.99
2018-02-06T04:48:28.012Z,99.99
2018-02-06T04:49:28.008Z,99.99
2018-02-06T04:50:27.986Z,99.99
2018-02-06T04:51:27.972Z,99.99
2018-02-06T04:52:27.964Z,99.99
2018-02-06T04:53:27.957Z,99.99
2018-02-06T04:54:27.935Z,99.99
2018-02-06T04:55:27.921Z,99.99
2018-02-06T04:56:27.908Z,99.99
2018-02-06T04:57:27.907Z,99.99
2018-02-06T04:58:27.888Z,99.99
2018-02-06T04:59:27.878Z,99.99
2018-02-06T05:00:27.853Z,99.99
2018-02-06T05:01:27.841Z,99.99
2018-02-06T05:02:27.826Z,99.99
2018-02-06T05:03:27.813Z,99.99
2018-02-06T05:04:27.800Z,99.99
2018-02-06T05:05:27.791Z,99.99
2018-02-06T05:06:27.771Z,99.99
2018-02-06T05:07:27.762Z,99.99
2018-02-06T05:08:27.747Z,99.99
2018-02-06T05:09:27.733Z,99.99
2018-02-06T05:10:27.722Z,99.99
2018-02-06T05:11:27.718Z,99.99
2018-02-06T05:12:27.696Z,99.99
2018-02-06T05:13:27.678Z,99.99
2018-02-06T05:14:27.681Z,99.99
2018-02-06T05:15:27.669Z,99.99
2018-02-06T05:16:27.641Z,99.99
2018-02-06T05:17:27.625Z,99.99
2018-02-06T05:18:27.621Z,99.99
2018-02-06T05:19:27.602Z,99.99
2018-02-06T05:20:27.609Z,99.99
2018-02-06T05:21:27.597Z,99.99
2018-02-06T07:47:50.181Z,97.09
2018-02-06T07:48:50.143Z,96.91
2018-02-06T07:50:44.472Z,97.28
2018-02-06T07:51:44.438Z,97.28
2018-02-06T07:53:38.826Z,97.28
2018-02-06T07:54:38.788Z,97.28
2018-02-06T07:56:33.180Z,98.41
2018-02-06T07:57:33.144Z,98.60
2018-02-06T07:59:27.478Z,98.41
2018-02-06T08:00:27.396Z,97.75
2018-02-06T08:02:21.774Z,97.28
2018-02-06T08:03:21.725Z,97.38
2018-02-06T08:05:16.141Z,97.28
2018-02-06T08:06:16.073Z,97.47
2018-02-06T08:08:10.439Z,97.28
2018-02-06T08:09:10.380Z,97.28
2018-02-06T08:10:10.451Z,96.44
2018-02-06T08:11:10.329Z,96.81
2018-02-06T08:12:10.350Z,96.91
2018-02-06T08:13:10.323Z,96.67
2018-02-06T08:14:10.324Z,96.48
2018-02-06T08:15:10.274Z,96.39
2018-02-06T08:16:10.265Z,95.40
2018-02-06T08:17:10.248Z,95.07
2018-02-06T08:18:10.235Z,95.31
2018-02-06T08:19:10.220Z,95.83
2018-02-06T08:20:10.211Z,95.92
2018-02-06T08:21:10.197Z,95.21
2018-02-06T08:22:10.184Z,95.54
2018-02-06T08:23:10.171Z,95.36
2018-02-06T08:24:10.160Z,95.07
2018-02-06T08:25:10.143Z,95.45
2018-02-06T08:26:10.170Z,94.98
2018-02-06T08:27:10.122Z,94.51
2018-02-06T08:28:10.109Z,94.41
2018-02-06T08:29:10.095Z,94.22
2018-02-06T08:30:10.115Z,94.88
2018-02-06T08:31:10.072Z,94.60
2018-02-06T08:32:10.062Z,94.60
2018-02-06T08:33:10.049Z,94.51
2018-02-06T08:34:10.038Z,95.54
2018-02-06T08:35:10.029Z,95.36
2018-02-06T08:36:10.017Z,94.60
2018-02-06T08:37:10.004Z,94.60
2018-02-06T08:38:09.990Z,94.22
2018-02-06T08:39:09.981Z,93.56
2018-02-06T08:40:09.968Z,93.28
2018-02-06T08:41:09.954Z,92.80
2018-02-06T08:42:09.941Z,92.05
2018-02-06T08:43:09.933Z,91.58
2018-02-06T08:44:09.917Z,91.30
2018-02-06T08:45:09.919Z,91.91
2018-02-06T08:46:09.900Z,91.82
2018-02-06T08:47:09.887Z,90.82
2018-02-06T08:48:09.884Z,88.37
2018-02-06T08:49:09.867Z,85.91
2018-02-06T08:50:09.854Z,85.91
2018-02-06T08:51:09.848Z,86.38
2018-02-06T08:52:09.837Z,86.63
2018-02-06T08:53:09.826Z,85.87
2018-02-06T08:54:09.819Z,86.72
2018-02-06T08:55:09.806Z,87.15
2018-02-06T08:56:09.799Z,88.47
2018-02-06T08:57:09.786Z,89.51
2018-02-06T08:58:09.774Z,89.79
2018-02-06T08:59:09.766Z,90.55
2018-02-06T09:00:09.757Z,91.11
2018-02-06T09:01:09.747Z,91.02
2018-02-06T09:02:09.734Z,90.83
2018-02-06T09:03:09.725Z,91.11
2018-02-06T09:04:09.728Z,91.20
2018-02-06T09:05:09.707Z,91.02
2018-02-06T09:06:09.696Z,91.49
2018-02-06T09:07:09.686Z,91.11
2018-02-06T09:08:09.678Z,91.67
2018-02-06T09:09:09.666Z,91.86
2018-02-06T09:10:09.657Z,92.14
2018-02-06T09:11:09.653Z,91.86
2018-02-06T09:12:09.637Z,92.05
2018-02-06T09:13:09.627Z,92.24
2018-02-06T09:14:09.615Z,91.91
2018-02-06T09:15:09.608Z,90.97
2018-02-06T09:16:09.596Z,90.87
2018-02-06T09:17:09.586Z,91.49
2018-02-06T09:18:09.577Z,91.49
2018-02-06T09:19:09.566Z,91.02
2018-02-06T09:20:09.556Z,91.39
2018-02-06T09:21:09.546Z,91.77
2018-02-06T09:22:09.538Z,92.00
2018-02-06T09:23:09.525Z,92.47
2018-02-06T09:24:09.519Z,91.91
2018-02-06T09:25:09.505Z,92.19
2018-02-06T09:26:09.494Z,91.72
2018-02-06T09:27:09.485Z,91.16
2018-02-06T09:28:09.477Z,91.25
2018-02-06T09:29:09.467Z,90.78
2018-02-06T09:30:09.458Z,90.21
2018-02-06T09:31:09.451Z,90.59
2018-02-06T09:32:09.435Z,90.78
2018-02-06T09:33:09.430Z,90.59
2018-02-06T09:34:09.445Z,89.83
2018-02-06T09:35:09.454Z,89.08
2018-02-06T09:36:09.403Z,88.32
2018-02-06T09:37:09.399Z,88.51
2018-02-06T09:38:09.386Z,87.48
2018-02-06T09:39:09.371Z,87.76
2018-02-06T09:40:09.363Z,88.42
2018-02-06T09:41:09.356Z,89.45
2018-02-06T09:42:09.351Z,89.64
2018-02-06T09:43:09.339Z,90.78
2018-02-06T09:44:09.330Z,91.16
2018-02-06T09:45:09.318Z,90.97
2018-02-06T09:46:09.309Z,91.44
2018-02-06T09:47:09.299Z,91.02
2018-02-06T09:48:09.289Z,90.92
2018-02-06T09:49:09.285Z,92.00
2018-02-06T09:50:09.275Z,93.61
2018-02-06T09:51:09.288Z,92.95
2018-02-06T09:52:09.256Z,92.10
2018-02-06T09:53:09.242Z,90.87
2018-02-06T09:54:09.241Z,90.40
2018-02-06T09:55:09.222Z,89.27
2018-02-06T09:56:09.213Z,88.60
2018-02-06T09:57:09.205Z,88.18
2018-02-06T09:58:09.195Z,88.75
2018-02-06T09:59:09.185Z,89.40
2018-02-06T10:00:09.175Z,89.59
2018-02-06T10:01:09.168Z,89.50
2018-02-06T10:02:09.159Z,89.31
2018-02-06T10:03:09.149Z,88.46
2018-02-06T10:04:09.141Z,88.18
2018-02-06T10:05:09.136Z,87.18
2018-02-06T10:06:09.125Z,86.52
2018-02-06T10:07:09.115Z,86.52
2018-02-06T10:08:09.111Z,86.86
2018-02-06T10:09:09.103Z,86.48
2018-02-06T10:10:09.096Z,86.86
2018-02-06T10:11:09.087Z,86.19
2018-02-06T10:12:09.081Z,86.67
2018-02-06T10:13:09.073Z,86.95
2018-02-06T10:14:09.062Z,86.19
2018-02-06T10:15:09.057Z,85.72
2018-02-06T10:16:09.050Z,85.77
2018-02-06T10:17:09.043Z,86.33
2018-02-06T10:18:09.035Z,84.20
2018-02-06T10:19:09.028Z,81.84
2018-02-06T10:20:09.024Z,80.46
2018-02-06T10:21:09.024Z,80.56
2018-02-06T10:22:09.012Z,80.46
2018-02-06T10:23:09.007Z,78.53
2018-02-06T10:24:09.010Z,77.97
2018-02-06T10:25:09.009Z,79.19
2018-02-06T10:26:08.999Z,79.10
2018-02-06T10:27:09.005Z,79.67
2018-02-06T10:28:09.042Z,81.27
2018-02-06T10:29:08.994Z,80.24
2018-02-06T10:30:09.091Z,80.14
2018-02-06T10:31:08.990Z,79.00
2018-02-06T10:32:08.989Z,79.29
2018-02-06T10:33:09.176Z,79.00
2018-02-06T10:34:10.076Z,78.44
2018-02-06T10:35:08.989Z,79.95
2018-02-06T10:36:08.989Z,80.05
2018-02-06T10:37:08.990Z,79.19
2018-02-06T10:38:08.988Z,78.53
2018-02-06T10:39:09.004Z,79.29
2018-02-06T10:40:08.989Z,80.33
2018-02-06T10:41:08.991Z,79.86
2018-02-06T10:42:08.995Z,80.52
2018-02-06T10:43:08.993Z,80.90
2018-02-06T10:44:09.008Z,81.18
2018-02-06T10:45:08.993Z,80.90
2018-02-06T10:46:08.992Z,80.24
2018-02-06T10:47:08.992Z,81.09
2018-02-06T10:48:08.986Z,80.99
2018-02-06T10:49:08.989Z,80.71
2018-02-06T10:50:09.000Z,82.03
2018-02-06T10:51:08.983Z,81.74
2018-02-06T10:52:08.981Z,81.56
2018-02-06T10:53:08.979Z,82.03
2018-02-06T10:54:08.975Z,81.74
2018-02-06T10:55:08.975Z,81.93
2018-02-06T10:56:08.977Z,81.93
2018-02-06T10:57:08.974Z,81.56
2018-02-06T10:58:08.969Z,81.93
2018-02-06T10:59:08.964Z,82.22
2018-02-06T11:00:08.961Z,82.88
2018-02-06T11:01:08.960Z,83.17
2018-02-06T11:02:08.956Z,82.03
2018-02-06T11:03:08.949Z,81.84
2018-02-06T11:04:08.949Z,81.93
2018-02-06T11:05:08.949Z,81.46
2018-02-06T11:06:08.936Z,81.56
2018-02-06T11:07:08.979Z,81.27
2018-02-06T11:08:08.928Z,81.93
2018-02-06T11:09:08.925Z,82.03
2018-02-06T11:10:08.920Z,82.31
2018-02-06T11:11:08.917Z,83.97
2018-02-06T11:12:08.910Z,85.24
2018-02-06T11:13:08.906Z,85.30
2018-02-06T11:14:08.901Z,85.62
2018-02-06T11:15:08.946Z,86.00
2018-02-06T11:16:08.891Z,84.96
2018-02-06T11:17:08.884Z,85.15
2018-02-06T11:18:08.879Z,85.15
2018-02-06T11:19:08.877Z,85.24
2018-02-06T11:20:08.866Z,84.49
2018-02-06T11:21:08.863Z,85.24
2018-02-06T11:22:08.858Z,85.05
2018-02-06T11:23:08.852Z,85.91
2018-02-06T11:24:08.856Z,86.29
2018-02-06T11:25:08.916Z,85.05
2018-02-06T11:26:08.834Z,85.24
2018-02-06T11:27:08.830Z,85.62
2018-02-06T11:28:08.845Z,87.13
2018-02-06T11:29:08.816Z,86.66
2018-02-06T11:30:08.810Z,86.29
2018-02-06T11:31:08.821Z,85.72
2018-02-06T11:32:08.802Z,85.34
2018-02-06T11:33:08.792Z,85.15
2018-02-06T11:34:08.820Z,85.24
2018-02-06T11:35:08.779Z,85.34
2018-02-06T11:36:08.787Z,83.92
2018-02-06T11:37:08.772Z,84.11
2018-02-06T11:38:08.768Z,83.73
2018-02-06T11:39:08.757Z,83.92
2018-02-06T11:40:08.748Z,83.92
2018-02-06T11:41:08.896Z,84.11
2018-02-06T11:42:08.748Z,85.39
2018-02-06T11:43:08.729Z,85.43
2018-02-06T11:44:08.722Z,86.10
2018-02-06T11:45:08.716Z,86.29
2018-02-06T11:46:08.712Z,86.66
2018-02-06T11:47:08.708Z,86.19
2018-02-06T11:48:08.700Z,84.96
2018-02-06T11:49:08.692Z,85.28
2018-02-06T11:50:08.687Z,84.72
2018-02-06T11:51:08.711Z,84.53
2018-02-06T11:52:08.673Z,83.45
2018-02-06T11:53:08.666Z,83.45
2018-02-06T11:54:08.663Z,83.64
2018-02-06T11:55:08.656Z,84.20
2018-02-06T11:56:08.652Z,83.92
2018-02-06T11:57:08.644Z,83.17
2018-02-06T11:58:08.644Z,84.58
2018-02-06T11:59:08.630Z,84.39
2018-02-06T12:00:08.623Z,85.34
2018-02-06T12:01:08.621Z,84.20
2018-02-06T12:02:08.615Z,83.45
2018-02-06T12:03:08.604Z,83.64
2018-02-06T12:04:08.601Z,84.20
2018-02-06T12:05:08.645Z,85.05
2018-02-06T12:06:08.589Z,85.24
2018-02-06T12:07:08.580Z,85.34
2018-02-06T12:08:08.576Z,86.19
2018-02-06T12:09:08.571Z,85.91
2018-02-06T12:10:08.559Z,85.91
2018-02-06T12:11:08.555Z,86.29
2018-02-06T12:12:08.556Z,85.91
2018-02-06T12:13:08.542Z,85.43
2018-02-06T12:14:08.539Z,85.24
2018-02-06T12:15:08.530Z,85.47
2018-02-06T12:16:08.541Z,85.28
2018-02-06T12:17:08.557Z,84.72
2018-02-06T12:18:08.509Z,84.53
2018-02-06T12:19:08.507Z,84.16
2018-02-06T12:20:08.498Z,83.68
2018-02-06T12:21:08.494Z,84.01
2018-02-06T12:22:08.498Z,85.28
2018-02-06T12:23:08.482Z,86.04
2018-02-06T12:24:08.473Z,86.10
2018-02-06T12:25:08.464Z,86.10
2018-02-06T12:26:08.480Z,86.29
2018-02-06T12:27:08.453Z,86.23
2018-02-06T12:28:08.447Z,85.05
2018-02-06T12:29:08.442Z,85.34
2018-02-06T12:30:08.444Z,85.28
2018-02-06T12:31:08.426Z,85.57
2018-02-06T12:32:08.423Z,85.85
2018-02-06T12:33:08.441Z,85.38
2018-02-06T12:34:08.413Z,85.47
2018-02-06T12:35:08.404Z,84.91
2018-02-06T12:36:08.405Z,85.00
2018-02-06T12:37:08.390Z,85.95
2018-02-06T12:38:08.383Z,85.81
2018-02-06T12:39:08.376Z,85.24
2018-02-06T12:40:08.370Z,85.91
2018-02-06T12:41:08.369Z,86.94
2018-02-06T12:42:08.359Z,86.66
2018-02-06T12:43:08.350Z,86.57
2018-02-06T12:44:08.343Z,86.10
2018-02-06T12:45:08.334Z,86.38
2018-02-06T12:46:08.334Z,85.81
2018-02-06T12:47:08.321Z,86.76
2018-02-06T12:48:08.328Z,87.13
2018-02-06T12:49:08.333Z,87.32
2018-02-06T12:50:08.315Z,87.32
2018-02-06T12:51:08.298Z,87.70
2018-02-06T12:52:08.286Z,87.42
2018-02-06T12:53:08.282Z,88.36
2018-02-06T12:54:08.275Z,88.65
2018-02-06T12:55:08.268Z,87.42
2018-02-06T12:56:08.264Z,87.32
2018-02-06T12:57:08.253Z,87.61
2018-02-06T12:58:08.248Z,87.98
2018-02-06T12:59:08.240Z,89.03
2018-02-06T13:00:08.234Z,88.74
2018-02-06T13:01:08.224Z,88.93
2018-02-06T13:02:08.219Z,89.12
2018-02-06T13:03:08.269Z,87.98
2018-02-06T13:04:08.205Z,87.98
2018-02-06T13:05:08.199Z,88.36
2018-02-06T13:06:08.192Z,88.93
2018-02-06T13:07:08.185Z,88.46
2018-02-06T13:08:08.178Z,88.08
2018-02-06T13:09:08.172Z,87.89
2018-02-06T13:10:08.160Z,88.46
2018-02-06T13:11:08.159Z,88.65
2018-02-06T13:12:08.150Z,88.93
2018-02-06T13:13:08.139Z,88.93
2018-02-06T13:14:08.146Z,89.78
2018-02-06T13:15:08.127Z,89.22
2018-02-06T13:16:08.126Z,88.65
2018-02-06T13:17:08.112Z,88.46
2018-02-06T13:18:08.105Z,88.93
2018-02-06T13:19:08.097Z,88.55
2018-02-06T13:20:08.092Z,87.70
2018-02-06T13:21:08.092Z,87.89
2018-02-06T13:22:08.096Z,88.46
2018-02-06T13:23:08.072Z,89.40
2018-02-06T13:24:08.065Z,88.84
2018-02-06T13:25:08.056Z,89.03
2018-02-06T13:26:08.048Z,88.93
2018-02-06T13:27:08.042Z,89.40
2018-02-06T13:28:08.036Z,89.03
2018-02-06T13:29:08.029Z,88.84
2018-02-06T13:30:08.025Z,88.79
2018-02-06T13:31:08.017Z,87.98
2018-02-06T13:32:08.006Z,87.27
2018-02-06T13:33:08.002Z,87.46
2018-02-06T13:34:07.992Z,87.27
2018-02-06T13:35:07.992Z,87.65
2018-02-06T13:36:07.988Z,87.37
2018-02-06T13:37:07.995Z,86.85
2018-02-06T13:38:08.046Z,86.57
2018-02-06T13:39:07.970Z,86.94
2018-02-06T13:40:07.956Z,87.42
2018-02-06T13:41:07.951Z,87.98
2018-02-06T13:42:07.944Z,88.17
2018-02-06T13:43:07.933Z,88.65
2018-02-06T13:44:07.926Z,88.50
2018-02-06T13:45:07.918Z,88.88
2018-02-06T13:46:07.908Z,88.36
2018-02-06T13:47:07.904Z,87.89
2018-02-06T13:48:07.896Z,87.70
2018-02-06T13:49:07.889Z,87.32
2018-02-06T13:50:07.882Z,87.79
2018-02-06T13:51:07.875Z,89.12
2018-02-06T13:52:07.888Z,88.36
2018-02-06T13:53:07.866Z,88.69
2018-02-06T13:54:07.857Z,87.70
2018-02-06T13:55:07.846Z,87.13
2018-02-06T13:56:07.838Z,87.70
2018-02-06T13:57:07.830Z,87.89
2018-02-06T13:58:07.825Z,88.55
2018-02-06T13:59:07.817Z,89.03
2018-02-06T14:00:07.810Z,89.31
2018-02-06T14:01:07.803Z,89.50
2018-02-06T14:02:07.800Z,89.78
2018-02-06T14:03:07.794Z,90.91
2018-02-06T14:04:07.793Z,90.06
2018-02-06T14:05:07.775Z,90.35
2018-02-06T14:06:07.774Z,89.40
2018-02-06T14:07:07.760Z,90.16
2018-02-06T14:08:07.762Z,90.54
2018-02-06T14:09:07.752Z,89.97
2018-02-06T14:10:07.818Z,89.40
2018-02-06T14:11:07.732Z,89.78
2018-02-06T14:12:07.722Z,89.40
2018-02-06T14:13:07.715Z,90.16
2018-02-06T14:14:32.506Z,90.25
2018-02-06T14:15:07.706Z,90.35
2018-02-06T14:16:07.696Z,91.01
2018-02-06T14:17:08.459Z,91.77
2018-02-06T14:18:10.461Z,91.39
2018-02-06T14:19:07.675Z,91.29
2018-02-06T14:20:07.661Z,91.29
2018-02-06T14:21:07.688Z,91.29
2018-02-06T14:22:07.655Z,91.29
2018-02-06T14:23:07.718Z,91.39
2018-02-06T14:24:07.632Z,91.48
2018-02-06T14:25:07.623Z,91.10
2018-02-06T14:26:07.687Z,91.25
2018-02-06T14:27:07.610Z,91.06
2018-02-06T14:28:07.601Z,92.14
2018-02-06T14:29:07.602Z,92.24
2018-02-06T14:30:07.586Z,91.77
2018-02-06T14:31:07.576Z,92.24
2018-02-06T14:32:07.566Z,92.80
2018-02-06T14:33:07.582Z,93.18
2018-02-06T14:34:07.557Z,92.61
2018-02-06T14:35:07.541Z,91.67
2018-02-06T14:36:07.533Z,91.67
2018-02-06T14:37:07.541Z,91.39
2018-02-06T14:38:12.631Z,91.58
2018-02-06T14:39:07.512Z,91.10
2018-02-06T14:40:09.456Z,91.39
2018-02-06T14:41:07.512Z,91.58
2018-02-06T14:42:07.489Z,91.48
2018-02-06T14:43:07.497Z,91.39
2018-02-06T14:44:08.460Z,91.86
2018-02-06T14:45:07.463Z,91.01
2018-02-06T14:46:07.458Z,91.39
2018-02-06T14:47:07.446Z,91.29
2018-02-06T14:48:07.440Z,91.48
2018-02-06T14:49:07.452Z,91.67
2018-02-06T14:50:07.427Z,91.67
2018-02-06T14:51:07.417Z,91.58
2018-02-06T14:52:07.408Z,91.01
2018-02-06T14:53:07.404Z,91.10
2018-02-06T14:54:07.417Z,91.86
2018-02-06T14:55:07.384Z,92.24
2018-02-06T14:56:07.380Z,92.61
2018-02-06T14:57:07.370Z,91.48
2018-02-06T14:58:07.366Z,91.39
2018-02-06T14:59:07.353Z,91.58
2018-02-06T15:00:07.343Z,92.05
2018-02-06T15:01:07.386Z,91.77
2018-02-06T15:02:07.331Z,91.29
2018-02-06T15:03:07.320Z,91.29
2018-02-06T15:04:07.332Z,91.29
2018-02-06T15:05:07.305Z,90.96
2018-02-06T15:06:07.297Z,91.86
2018-02-06T15:07:07.314Z,91.77
2018-02-06T15:08:07.280Z,91.15
2018-02-06T15:09:07.309Z,91.15
2018-02-06T15:10:07.264Z,91.34
2018-02-06T15:11:07.256Z,91.34
2018-02-06T15:12:07.254Z,91.44
2018-02-06T15:13:07.241Z,92.47
2018-02-06T15:14:07.233Z,91.82
2018-02-06T15:15:07.224Z,92.00
2018-02-06T15:16:07.216Z,92.57
2018-02-06T15:17:07.210Z,92.10
2018-02-06T15:18:07.219Z,92.76
2018-02-06T15:19:07.189Z,92.94
2018-02-06T15:20:07.182Z,92.94
2018-02-06T15:21:07.174Z,92.94
2018-02-06T15:22:07.169Z,92.57
2018-02-06T15:23:07.156Z,92.47
2018-02-06T15:24:07.149Z,93.23
2018-02-06T15:25:07.141Z,94.08
2018-02-06T15:26:07.132Z,93.99
2018-02-06T15:27:07.122Z,94.65
2018-02-06T15:28:07.114Z,93.70
2018-02-06T15:29:07.107Z,93.32
2018-02-06T15:30:07.099Z,94.08
2018-02-06T15:31:07.091Z,94.37
2018-02-06T15:32:07.078Z,93.99
2018-02-06T15:33:07.073Z,94.08
2018-02-06T15:34:07.064Z,94.37
2018-02-06T15:35:07.057Z,93.51
2018-02-06T15:36:07.044Z,93.42
2018-02-06T15:37:07.035Z,93.42
2018-02-06T15:38:07.029Z,93.70
2018-02-06T15:39:07.023Z,92.66
2018-02-06T15:40:07.006Z,92.66
2018-02-06T15:41:07.008Z,92.76
2018-02-06T15:42:06.999Z,92.85
2018-02-06T15:43:06.983Z,92.66
2018-02-06T15:44:06.977Z,92.94
2018-02-06T15:45:06.966Z,92.57
2018-02-06T15:46:06.958Z,93.42
2018-02-06T15:47:06.951Z,93.13
2018-02-06T15:48:06.938Z,93.61
2018-02-06T15:49:06.929Z,94.37
2018-02-06T15:50:06.926Z,93.80
2018-02-06T15:51:06.913Z,94.74
2018-02-06T15:52:06.907Z,95.03
2018-02-06T15:53:06.901Z,94.74
2018-02-06T15:54:06.888Z,94.18
2018-02-06T15:55:06.878Z,93.70
2018-02-06T15:56:06.868Z,93.70
2018-02-06T15:57:06.862Z,94.65
2018-02-06T15:58:06.853Z,94.18
2018-02-06T15:59:06.842Z,94.93
2018-02-06T16:00:06.836Z,94.65
2018-02-06T16:01:06.824Z,95.31
2018-02-06T16:02:06.816Z,95.31
2018-02-06T16:03:06.810Z,95.40
2018-02-06T16:04:06.799Z,96.06
2018-02-06T16:05:06.791Z,96.16
2018-02-06T16:06:06.780Z,95.97
2018-02-06T16:07:06.773Z,95.31
2018-02-06T16:08:06.760Z,95.21
2018-02-06T16:09:06.757Z,95.31
2018-02-06T16:10:06.742Z,94.65
2018-02-06T16:11:06.730Z,94.37
2018-02-06T16:12:06.724Z,95.59
2018-02-06T16:13:06.715Z,95.12
2018-02-06T16:14:06.707Z,95.59
2018-02-06T16:15:06.702Z,95.03
2018-02-06T16:16:06.706Z,96.25
2018-02-06T16:17:06.678Z,96.35
2018-02-06T16:18:06.672Z,96.06
2018-02-06T16:19:06.668Z,96.06
2018-02-06T16:20:06.708Z,96.54
2018-02-06T16:21:06.643Z,96.35
2018-02-06T16:22:06.634Z,96.16
2018-02-06T16:23:06.623Z,96.16
2018-02-06T16:24:06.611Z,94.98
2018-02-06T16:25:06.607Z,95.17
2018-02-06T16:26:06.596Z,95.45
2018-02-06T16:27:06.586Z,95.92
2018-02-06T16:28:06.576Z,95.54
2018-02-06T16:29:06.570Z,96.49
2018-02-06T16:30:06.562Z,96.49
2018-02-06T16:31:06.549Z,97.15
2018-02-06T16:32:06.539Z,97.05
2018-02-06T16:33:06.529Z,96.20
2018-02-06T16:34:06.520Z,96.68
2018-02-06T16:35:06.515Z,96.96
2018-02-06T16:36:06.503Z,96.86
2018-02-06T16:37:06.513Z,96.30
2018-02-06T16:38:06.483Z,96.49
2018-02-06T16:39:06.472Z,97.15
2018-02-06T16:40:06.464Z,96.68
2018-02-06T16:42:00.861Z,96.39
2018-02-06T16:43:00.804Z,96.68
2018-02-06T16:44:55.193Z,96.86
2018-02-06T16:45:55.149Z,96.77
2018-02-06T16:47:49.564Z,96.68
2018-02-06T16:48:49.496Z,96.86
2018-02-06T16:50:43.971Z,96.58
2018-02-06T16:51:43.822Z,96.77
2018-02-06T16:53:38.620Z,96.39
2018-02-06T16:54:38.278Z,96.30
2018-02-06T16:56:32.638Z,97.43
2018-02-06T16:57:33.974Z,97.43
2018-02-06T16:59:27.103Z,97.05
2018-02-06T17:00:27.334Z,97.53
2018-02-06T17:02:21.560Z,97.15
2018-02-06T17:03:21.340Z,97.34
2018-02-06T17:05:17.849Z,97.53
2018-02-06T17:06:16.220Z,97.24
2018-02-06T17:08:10.452Z,97.62
2018-02-06T17:09:10.129Z,97.24
2018-02-06T17:11:04.785Z,97.34
2018-02-06T17:12:04.656Z,97.62
2018-02-06T17:13:59.051Z,98.10
2018-02-06T17:14:58.788Z,98.10
2018-02-06T17:16:53.164Z,97.62
2018-02-06T17:17:53.160Z,98.10
2018-02-06T17:19:47.584Z,97.72
2018-02-06T17:20:47.639Z,98.10
2018-02-06T17:22:41.852Z,98.10
2018-02-06T17:23:42.354Z,98.85
2018-02-06T17:25:37.149Z,98.85
2018-02-06T17:26:37.163Z,98.66
2018-02-06T17:28:31.894Z,98.10
2018-02-06T17:29:31.537Z,98.10
2018-02-06T17:31:25.934Z,97.53
2018-02-06T17:32:26.098Z,97.34
2018-02-06T17:34:20.419Z,98.10
2018-02-06T17:35:20.106Z,98.00
2018-02-06T17:37:14.501Z,97.72
2018-02-06T17:38:14.627Z,97.72